Latest Weather Observations for Bombala AWS

IDN60801

Issued at 9:32 pm EST Sunday 26 April 2015 (issued every 30 minutes, with the page automatically refreshed every 10 minutes)

About weather observations | Map of weather stations | Latest weather observations for NSW | Other Formats
Station Details ID: 070328 Name: BOMBALA AWS Lat: -37.00 Lon: 149.23 Height: 760.5 m
Data from the previous 72 hours. | See also: Recent months at Bombala AWS
Date/Time
EST
Temp
°C
App
Temp
°C
Dew
Point
Rel
Hum
%
Delta-T
°C
Wind Press
QNH
hPa
Press
MSL
hPa
Rain
since 9 am
mm
Dir
 
Spd
km/h
Gust
km/h
Spd
kts
Gust
kts
26/09:30pm 5.6 2.2 3.9 89 0.8 NW 11 19 6 10 1017.0 1016.0 0.8
26/09:00pm 6.4 2.0 4.7 89 0.8 WNW 17 26 9 14 1017.2 1016.3 0.8
26/08:30pm 5.9 1.8 4.2 89 0.8 WNW 15 19 8 10 1017.3 1016.4 0.8
26/08:00pm 6.8 2.6 3.8 81 1.3 WSW 15 20 8 11 1017.2 1016.3 0.8
26/07:30pm 7.1 2.7 4.6 84 1.1 WSW 17 26 9 14 1017.1 1016.2 0.8
26/07:00pm 7.4 1.7 4.9 84 1.2 SW 24 35 13 19 1016.6 1015.7 0.8
26/06:30pm 7.2 2.0 5.3 88 0.9 WSW 22 32 12 17 1016.1 1015.2 0.8
26/06:00pm 7.2 -0.2 5.0 86 1.0 WSW 33 46 18 25 1015.7 1014.7 0.8
26/05:47pm 7.4 0.7 5.7 89 0.8 WSW 30 52 16 28 1015.7 1014.7 0.8
26/05:30pm 7.5 1.2 5.8 89 0.8 WSW 28 44 15 24 1015.4 1014.4 0.8
26/05:00pm 7.1 0.7 5.3 88 0.8 WSW 28 39 15 21 1014.9 1014.0 0.8
26/04:30pm 7.8 1.0 5.3 84 1.2 WSW 30 43 16 23 1014.8 1013.9 0.8
26/04:00pm 7.8 1.0 5.1 83 1.3 WSW 30 43 16 23 1014.5 1013.5 0.8
26/03:30pm 8.0 0.8 6.0 87 1.0 WSW 33 48 18 26 1014.2 1013.2 0.8
26/03:00pm 7.9 -0.1 5.7 86 1.0 WSW 37 54 20 29 1014.0 1013.0 0.8
26/02:42pm 7.9 0.9 6.0 88 0.9 WSW 32 52 17 28 1013.7 1012.8 0.8
26/02:30pm 7.6 1.0 6.1 90 0.7 WSW 30 44 16 24 1014.1 1013.1 0.8
26/02:13pm 8.1 -0.1 6.7 91 0.7 WSW 39 59 21 32 1013.5 1012.5 0.8
26/02:00pm 9.2 1.1 6.8 85 1.2 WSW 39 56 21 30 1012.9 1011.9 0.8
26/01:57pm 9.9 2.7 7.7 86 1.1 WSW 35 54 19 29 1012.9 1011.9 0.8
26/01:30pm 10.6 3.2 8.5 87 1.1 WSW 37 50 20 27 1012.9 1011.9 0.8
26/01:00pm 10.0 3.4 7.6 85 1.2 WSW 32 46 17 25 1013.0 1012.0 0.8
26/12:30pm 10.7 4.0 8.1 84 1.3 SW 33 44 18 24 1012.6 1011.6 0.8
26/12:00pm 9.3 2.6 8.2 93 0.6 WSW 33 41 18 22 1012.8 1011.8 0.8
26/11:30am 9.3 3.8 9.2 99 0.1 WSW 28 39 15 21 1013.0 1012.0 0.8
26/11:00am 9.9 3.6 9.0 94 0.5 SW 32 43 17 23 1012.7 1011.7 0.8
26/10:30am 11.5 7.4 11.3 99 0.1 SSW 24 35 13 19 1012.4 1011.5 0.8
26/10:00am 10.5 7.0 10.3 99 0.1 SSW 19 24 10 13 1012.4 1011.5 0.6
26/09:30am 9.5 5.8 9.4 99 0.1 SSW 19 28 10 15 1012.3 1011.3 0.4
26/09:00am 10.2 5.7 10.1 99 0.1 SSW 24 35 13 19 1012.0 1011.0 3.8
26/08:30am 9.5 5.8 9.4 99 0.1 SSW 19 26 10 14 1012.0 1011.0 3.8
26/08:00am 9.4 6.4 9.4 100 0.0 SSW 15 22 8 12 1011.5 1010.5 3.8
26/07:30am 8.7 5.9 8.7 100 0.0 SSW 13 19 7 10 1011.3 1010.2 3.8
26/07:00am 8.5 4.5 8.4 99 0.1 SW 19 26 10 14 1010.8 1009.8 3.6
26/06:30am 8.6 6.6 8.5 99 0.1 SSW 9 15 5 8 1010.3 1009.3 3.6
26/06:00am 8.6 5.0 8.5 99 0.1 SW 17 24 9 13 1009.9 1008.8 3.0
26/05:30am 8.8 4.3 8.7 99 0.1 SW 22 30 12 16 1009.4 1008.4 0.6
26/05:00am 8.8 6.4 8.7 99 0.1 SW 11 15 6 8 1009.4 1008.4 0.2
26/04:30am 8.6 5.4 8.5 99 0.1 SW 15 20 8 11 1009.1 1008.1 0.2
26/04:00am 8.4 4.4 8.3 99 0.1 WSW 19 26 10 14 1008.9 1007.8 0.2
26/03:30am 8.1 4.4 8.0 99 0.0 WSW 17 24 9 13 1008.9 1007.8 0.2
26/03:00am 7.7 4.3 7.6 99 0.0 SW 15 20 8 11 1009.0 1007.9 0.2
26/02:30am 7.8 3.5 7.7 99 0.0 WSW 20 26 11 14 1009.0 1007.9 0.2
26/02:00am 7.8 4.8 7.7 99 0.0 WSW 13 22 7 12 1009.4 1008.4 0.2
26/01:30am 8.0 6.8 7.9 99 0.0 WSW 4 7 2 4 1009.5 1008.5 0.2
26/01:00am 8.1 7.3 8.0 99 0.0 WNW 2 7 1 4 1009.3 1008.3 0.2
26/12:30am 7.9 7.4 7.8 99 0.0 CALM 0 0 0 0 1009.3 1008.3 0.2
26/12:00am 7.6 7.0 7.5 99 0.0 CALM 0 0 0 0 1009.8 1008.7 0.2
 
Date/Time
EST
Temp
°C
App
Temp
°C
Dew
Point
Rel
Hum
%
Delta-T
°C
Wind Press
QNH
hPa
Press
MSL
hPa
Rain
since 9 am
mm
Dir
 
Spd
km/h
Gust
km/h
Spd
kts
Gust
kts
25/11:30pm 8.0 7.5 7.9 99 0.0 CALM 0 0 0 0 1009.9 1008.8 0.2
25/11:00pm 8.1 6.3 8.0 99 0.0 SW 7 9 4 5 1010.0 1008.9 0.2
25/10:30pm 8.0 5.8 7.9 99 0.0 SW 9 11 5 6 1010.3 1009.3 0.2
25/10:00pm 8.2 7.8 8.1 99 0.1 CALM 0 0 0 0 1010.3 1009.3 0.2
25/09:30pm 8.4 8.0 8.3 99 0.1 CALM 0 0 0 0 1010.1 1009.0 0.2
25/09:00pm 8.7 7.7 8.7 100 0.0 SSE 4 6 2 3 1010.2 1009.2 0.2
25/08:30pm 7.9 6.6 7.8 99 0.0 NW 4 7 2 4 1010.2 1009.2 0.2
25/08:00pm 8.3 6.8 8.3 100 0.0 SSW 6 7 3 4 1009.8 1008.7 0.2
25/07:30pm 7.8 6.1 7.7 99 0.0 SSW 6 6 3 3 1009.3 1008.3 0.2
25/07:00pm 8.6 7.5 8.5 99 0.1 S 4 6 2 3 1009.3 1008.3 0.2
25/06:30pm 8.6 7.5 8.5 99 0.1 E 4 6 2 3 1009.3 1008.3 0.2
25/06:00pm 8.6 7.1 8.5 99 0.1 ENE 6 7 3 4 1009.1 1008.1 0.2
25/05:30pm 8.8 7.3 8.5 98 0.2 NW 6 9 3 5 1008.7 1007.6 0.2
25/05:00pm 9.6 8.5 8.5 93 0.6 ENE 4 6 2 3 1008.0 1007.0 0.2
25/04:30pm 9.9 9.3 8.8 93 0.6 ENE 2 6 1 3 1008.0 1007.0 0.2
25/04:00pm 10.3 7.9 8.6 89 0.9 N 11 17 6 9 1008.2 1007.2 0.0
25/03:30pm 10.9 7.4 8.7 86 1.1 NNW 17 32 9 17 1008.6 1007.5 0.0
25/03:00pm 12.1 9.0 8.9 81 1.7 NW 15 17 8 9 1008.1 1007.1 0.0
25/02:30pm 12.1 9.4 8.8 80 1.7 WNW 13 17 7 9 1008.1 1007.1 0.0
25/02:00pm 12.3 9.2 8.8 79 1.8 W 15 19 8 10 1007.9 1006.9 0.0
25/01:30pm 12.5 9.6 8.2 75 2.2 WNW 13 19 7 10 1007.8 1006.7 0.0
25/01:00pm 13.4 9.9 8.7 73 2.5 NW 17 22 9 12 1008.1 1007.1 0.0
25/12:30pm 13.8 11.8 8.6 71 2.7 NNW 9 13 5 7 1008.4 1007.3 0.0
25/12:00pm 14.4 12.4 8.6 68 3.1 NNW 9 15 5 8 1008.8 1007.7 0.0
25/11:30am 13.1 11.4 9.7 80 1.8 NNW 9 11 5 6 1009.0 1007.9 0.0
25/11:00am 12.4 9.8 9.4 82 1.6 NNW 13 17 7 9 1009.3 1008.3 0.0
25/10:30am 13.0 11.8 9.6 80 1.8 NNW 6 9 3 5 1009.0 1007.9 0.0
25/10:00am 13.2 11.5 10.0 81 1.7 N 9 13 5 7 1009.1 1008.1 0.0
25/09:30am 12.8 11.7 10.7 87 1.1 N 7 11 4 6 1009.1 1008.1 0.0
25/09:00am 12.2 12.0 9.0 81 1.7 CALM 0 2 0 1 1009.0 1007.9 0.6
25/08:30am 9.6 8.8 8.2 91 0.7 WNW 2 4 1 2 1009.0 1007.9 0.6
25/08:00am 7.8 6.5 7.7 99 0.0 WNW 4 6 2 3 1008.8 1007.7 0.6
25/07:30am 5.1 2.8 5.0 99 0.0 W 6 7 3 4 1008.6 1007.5 0.6
25/07:00am 5.1 3.2 5.0 99 0.0 W 4 6 2 3 1008.1 1007.1 0.6
25/06:30am 5.6 4.6 5.5 99 0.0 CALM 0 0 0 0 1007.8 1006.7 0.6
25/06:00am 5.1 2.6 5.0 99 0.0 N 7 9 4 5 1007.8 1006.7 0.6
25/05:30am 6.0 3.7 5.9 99 0.0 N 7 11 4 6 1007.6 1006.5 0.6
25/05:00am 6.6 4.5 5.7 94 0.4 NNW 6 9 3 5 1007.7 1006.6 0.6
25/04:30am 7.0 5.3 6.1 94 0.4 W 4 7 2 4 1007.5 1006.4 0.6
25/04:00am 7.3 4.8 6.7 96 0.3 W 9 13 5 7 1007.4 1006.3 0.6
25/03:30am 7.9 4.5 7.6 98 0.1 WNW 15 17 8 9 1007.1 1006.0 0.6
25/03:00am 7.4 4.2 7.0 97 0.2 WNW 13 15 7 8 1007.2 1006.1 0.6
25/02:30am 7.0 3.8 6.9 99 0.0 WNW 13 15 7 8 1007.2 1006.1 0.6
25/02:00am 7.3 4.6 7.2 99 0.0 WNW 11 13 6 7 1007.4 1006.3 0.6
25/01:30am 8.9 5.5 7.8 93 0.5 WSW 15 17 8 9 1007.4 1006.3 0.6
25/01:00am 7.4 5.4 7.1 98 0.1 W 7 9 4 5 1007.3 1006.2 0.6
25/12:30am 7.9 5.7 7.8 99 0.0 NW 9 13 5 7 1007.5 1006.4 0.6
25/12:00am 7.8 5.6 7.7 99 0.0 NW 9 11 5 6 1007.4 1006.3 0.6
 
Date/Time
EST
Temp
°C
App
Temp
°C
Dew
Point
Rel
Hum
%
Delta-T
°C
Wind Press
QNH
hPa
Press
MSL
hPa
Rain
since 9 am
mm
Dir
 
Spd
km/h
Gust
km/h
Spd
kts
Gust
kts
24/11:30pm 8.3 5.8 8.2 99 0.1 NNW 11 15 6 8 1007.4 1006.3 0.6
24/11:00pm 8.3 5.8 8.2 99 0.1 NNW 11 13 6 7 1007.3 1006.2 0.6
24/10:30pm 9.3 6.1 8.5 95 0.4 NNW 15 17 8 9 1007.1 1006.0 0.6
24/10:00pm 9.8 7.1 9.0 95 0.4 NNW 13 15 7 8 1007.0 1005.9 0.6
24/09:30pm 9.8 7.3 9.7 99 0.1 NNW 13 17 7 9 1007.0 1005.9 0.6
24/09:00pm 10.6 9.3 9.8 95 0.4 NW 7 11 4 6 1006.8 1005.8 0.6
24/08:30pm 11.3 11.2 10.8 97 0.3 N 2 6 1 3 1006.8 1005.8 0.6
24/08:00pm 10.6 9.4 10.3 98 0.2 NNW 7 9 4 5 1006.5 1005.4 0.6
24/07:30pm 11.2 9.7 10.4 95 0.4 N 9 11 5 6 1006.4 1005.3 0.6
24/07:00pm 11.8 12.0 10.7 93 0.6 CALM 0 4 0 2 1006.3 1005.2 0.6
24/06:30pm 12.0 10.1 10.6 91 0.8 NW 11 17 6 9 1006.0 1004.9 0.6
24/06:00pm 11.8 10.4 11.0 95 0.4 WNW 9 13 5 7 1005.9 1004.8 0.6
24/05:30pm 12.9 9.8 11.5 91 0.8 NW 19 24 10 13 1005.3 1004.2 0.6
24/05:00pm 13.4 11.9 13.2 99 0.1 NW 13 15 7 8 1005.3 1004.2 0.6
24/04:30pm 13.7 12.4 13.7 100 0.0 NNW 13 17 7 9 1005.1 1004.0 0.6
24/04:00pm 14.1 13.3 13.9 99 0.1 NW 11 15 6 8 1004.9 1003.8 0.6
24/03:30pm 14.5 13.7 14.0 97 0.3 W 11 15 6 8 1004.9 1003.8 0.2
24/03:00pm 14.9 13.8 14.4 97 0.3 W 13 17 7 9 1004.8 1003.7 0.0
24/02:30pm 14.8 14.4 14.0 95 0.5 WNW 9 15 5 8 1004.8 1003.7 0.0
24/02:00pm 14.9 14.1 13.9 94 0.6 W 11 15 6 8 1004.7 1003.6 0.0
24/01:30pm 15.1 15.1 14.1 94 0.6 W 7 9 4 5 1004.9 1003.8 0.0
24/01:00pm 14.4 14.9 13.9 97 0.3 W 4 6 2 3 1005.1 1004.0 0.0
24/12:30pm 14.2 14.3 14.0 99 0.1 NW 6 7 3 4 1005.6 1004.4 0.0
24/12:00pm 14.0 13.4 13.4 96 0.3 NW 9 13 5 7 1005.8 1004.7 0.0
24/11:30am 14.3 12.9 13.5 95 0.5 NW 13 15 7 8 1006.0 1004.9 0.0
24/11:00am 14.2 12.4 13.4 95 0.5 NW 15 19 8 10 1006.2 1005.1 0.0
24/10:30am 14.5 13.4 14.3 99 0.1 NW 13 17 7 9 1006.2 1005.1 0.0
24/10:00am 13.6 11.8 13.4 99 0.1 NW 15 19 8 10 1006.4 1005.3 0.0
24/09:30am 12.7 10.7 12.7 100 0.0 NNW 15 19 8 10 1006.7 1005.7 0.0
24/09:00am 12.0 10.5 12.0 100 0.0 NW 11 13 6 7 1007.1 1006.0 3.0
24/08:30am 10.7 9.2 10.7 100 0.0 N 9 11 5 6 1007.4 1006.3 3.0
24/08:00am 10.2 9.2 10.2 100 0.0 NNW 6 9 3 5 1007.3 1006.2 3.0
24/07:30am 9.7 9.7 9.7 100 0.0 CALM 0 4 0 2 1007.4 1006.3 3.0
24/07:00am 9.5 8.7 9.5 100 0.0 NNW 4 6 2 3 1007.3 1006.2 3.0
24/06:30am 9.4 8.0 9.4 100 0.0 NW 7 11 4 6 1007.3 1006.2 3.0
24/06:00am 9.6 8.4 9.6 100 0.0 NNW 6 7 3 4 1007.3 1006.2 3.0
24/05:30am 9.7 8.3 9.7 100 0.0 NNW 7 9 4 5 1007.6 1006.5 3.0
24/05:00am 9.8 8.7 9.8 100 0.0 NNW 6 9 3 5 1007.7 1006.6 3.0
24/04:30am 9.9 9.2 9.9 100 0.0 N 4 6 2 3 1007.8 1006.7 3.0
24/04:00am 10.5 9.4 10.5 100 0.0 NNW 7 9 4 5 1008.0 1007.0 3.0
24/03:30am 11.1 9.8 11.1 100 0.0 NNW 9 13 5 7 1008.2 1007.2 3.0
24/03:00am 11.5 9.9 11.5 100 0.0 NNW 11 13 6 7 1008.6 1007.5 3.0
24/02:30am 11.8 10.3 11.8 100 0.0 NW 11 15 6 8 1008.9 1007.8 3.0
24/02:00am 12.0 11.5 12.0 100 0.0 NNW 6 9 3 5 1009.2 1008.2 3.0
24/01:30am 11.8 11.6 11.8 100 0.0 NNW 4 6 2 3 1009.6 1008.6 3.0
24/01:00am 12.0 11.3 12.0 100 0.0 NW 7 11 4 6 1010.1 1009.0 3.0
24/12:30am 11.9 11.4 11.9 100 0.0 NW 6 7 3 4 1010.5 1009.5 3.0
24/12:00am 11.7 10.9 11.7 100 0.0 NW 7 9 4 5 1010.5 1009.5 3.0
 
Date/Time
EST
Temp
°C
App
Temp
°C
Dew
Point
Rel
Hum
%
Delta-T
°C
Wind Press
QNH
hPa
Press
MSL
hPa
Rain
since 9 am
mm
Dir
 
Spd
km/h
Gust
km/h
Spd
kts
Gust
kts
23/11:30pm 11.8 11.6 11.8 100 0.0 NNW 4 6 2 3 1010.8 1009.8 3.0
23/11:00pm 12.0 11.9 12.0 100 0.0 NNE 4 6 2 3 1011.3 1010.2 3.0
23/10:30pm 12.5 12.1 12.5 100 0.0 N 6 11 3 6 1011.9 1010.9 2.8
23/10:00pm 12.8 13.7 12.8 100 0.0 CALM 0 0 0 0 1012.4 1011.5 2.6

Other Formats:

Comma delimited format used in spreadsheet applications
http://www.bom.gov.au/fwo/IDN60801/IDN60801.94929.axf

JavaScript Object Notation format (JSON) in row-major order
http://www.bom.gov.au/fwo/IDN60801/IDN60801.94929.json